Terminal Aerodrome Forecast
Issued by NWS

Home | Current Version | Previous Version | Text Only | Print | Product List | Glossary Off
Versions: 1 2 3 4 5 6 7 8 9 10 11 12 13 14

000
FTUS43 KGRB 272333
TAFMTW
TAF
KMTW 272333Z 2800/2824 13007KT P6SM FEW100 SCT250
     FM280200 VRB03KT P6SM SKC
      TEMPO 2810/2812 5SM BR
     FM281200 15009KT P6SM FEW100 BKN200
     FM281900 15010KT P6SM SCT050 BKN100=

USA.gov is the U.S. government's official web portal to all federal, state and local government web resources and services.